• Join FlightAware (Why Join?)
  • Login
  • US Flag 
02:12AM EDT


 

Airport Tracker/Info


-or-


 

Live Flight TrackerFlight Track Log ✈ N559LC ✈ 2013年 10月 28日 ✈ KDTW - KBCT

Flight Track Log - Related Links

Times and Time Zones

All times are in EDT time to prevent confusion due to time zone crossing. See the N559LC flight status page for this flight to view local times or setup timezone preferences in your user account.

Time Position Orientation Groundspeed Altitude Reporting Facility
EDT Latitude Longitude Course Direction KTS MPH feet Rate Location/Type
03:20PM 42.2272 -83.3392 48° Northeast 156 180 1,700  Level Cleveland Center
03:21PM 42.2672 -83.2797 48° Northeast 217 250 5,500 2,820 Climbing Cleveland Center
03:22PM 42.2703 -83.2278 85° East 238 274 7,000 2,700 Climbing Cleveland Center
03:22PM 42.2586 -83.2025 122° Southeast 286 329 8,000 3,240 Climbing Cleveland Center
03:23PM 42.2222 -83.1431 130° Southeast 293 337 10,400 2,760 Climbing Cleveland Center
03:24PM 42.1275 -83.1875 199° South 335 386 13,200 2,940 Climbing Cleveland Center
03:25PM 42.0475 -83.2558 212° Southwest 343 395 16,500 2,760 Climbing Cleveland Center
03:26PM 41.9628 -83.3289 213° Southwest 355 409 19,000 2,460 Climbing Cleveland Center
03:27PM 41.8725 -83.4058 212° Southwest 371 427 21,700 2,460 Climbing Cleveland Center
03:28PM 41.7789 -83.4817 211° Southwest 386 444 24,100 2,100 Climbing Cleveland Center
03:29PM 41.6656 -83.5106 191° South 414 476 26,100 1,860 Climbing Cleveland Center
03:30PM 41.5406 -83.4833 171° South 453 521 28,000 2,040 Climbing Cleveland Center
03:31PM 41.3867 -83.4467 170° South 468 539 30,400 2,400 Climbing Cleveland Center
03:32PM 41.2611 -83.4183 170° South 462 532 33,000 2,460 Climbing Cleveland Center
03:33PM 41.1381 -83.3906 170° South 451 519 35,600 1,980 Climbing Cleveland Center
03:34PM 41.0064 -83.3608 170° South 439 505 37,200 1,380 Climbing Cleveland Center
03:35PM 40.8842 -83.3328 170° South 444 511 38,500 1,020 Climbing Cleveland Center
03:36PM 40.7592 -83.3058 171° South 453 521 39,400 1,140 Climbing Cleveland Center
03:37PM 40.6339 -83.2772 170° South 458 527 40,900 1,200 Climbing Cleveland Center
03:38PM 40.5108 -83.2494 170° South 450 518 41,900 960 Climbing Cleveland Center
03:39PM 40.3644 -83.2186 171° South 444 511 43,000 480 Climbing Cleveland Center
03:40PM 40.2414 -83.1903 170° South 446 513 43,000  Level Cleveland Center
03:41PM 40.1153 -83.1625 170° South 453 521 43,000  Level Cleveland Center
03:42PM 39.9769 -83.1331 171° South 461 531 43,000  Level Cleveland Center
03:43PM 39.8561 -83.1067 170° South 467 537 43,000  Level Cleveland Center
03:44PM 39.7253 -83.0789 171° South 471 542 43,000  Level Cleveland Center
03:45PM 39.5944 -83.0511 171° South 473 544 43,000  Level Cleveland Center
03:46PM 39.4642 -83.0231 171° South 474 545 43,000  Level Cleveland Center
03:48PM 39.3078 -82.9906 171° South 474 545 43,000  Level Cleveland Center
03:49PM 39.1289 -82.9514 170° South 472 543 43,000  Level Indianapolis Center
03:50PM 38.9986 -82.9244 171° South 473 544 43,000  Level Indianapolis Center
03:51PM 38.8678 -82.8983 171° South 475 547 43,000  Level Indianapolis Center
03:52PM 38.7364 -82.8694 170° South 477 549 43,000  Level Indianapolis Center
03:53PM 38.6006 -82.8414 171° South 475 547 43,000  Level Indianapolis Center
03:54PM 38.4492 -82.8089 170° South 473 544 43,000  Level Indianapolis Center
03:55PM 38.3167 -82.7831 171° South 478 550 43,000  Level Indianapolis Center
03:56PM 38.1853 -82.7556 171° South 478 550 43,000  Level Indianapolis Center
03:57PM 38.0536 -82.7297 171° South 476 548 43,000  Level Indianapolis Center
03:58PM 37.9217 -82.7014 170° South 478 550 43,000  Level Indianapolis Center
03:59PM 37.7683 -82.6706 171° South 478 550 43,000  Level Indianapolis Center
04:00PM 37.6342 -82.6444 171° South 483 556 43,000  Level Indianapolis Center
04:01PM 37.5017 -82.6164 170° South 481 554 43,000  Level Indianapolis Center
04:02PM 37.3675 -82.5894 171° South 483 556 43,000  Level Indianapolis Center
04:03PM 37.2333 -82.5619 171° South 484 557 43,000  Level Indianapolis Center
04:04PM 37.0997 -82.5347 171° South 482 555 43,000  Level Indianapolis Center
04:05PM 36.9661 -82.5086 171° South 480 552 43,000  Level Indianapolis Center
04:07PM 36.8100 -82.4778 171° South 480 552 43,000  Level Indianapolis Center
04:08PM 36.6753 -82.4508 171° South 483 556 43,000  Level Indianapolis Center
04:08PM 36.6047 -82.4353 170° South 486 559 43,000  Level Atlanta Center
04:09PM 36.4708 -82.4097 171° South 486 559 43,000  Level Atlanta Center
04:10PM 36.3369 -82.3867 172° South 486 559 43,000  Level Atlanta Center
04:11PM 36.2075 -82.3583 170° South 486 559 43,000  Level Atlanta Center
04:12PM 36.0736 -82.3331 171° South 486 559 43,000  Level Atlanta Center
04:13PM 35.9375 -82.3075 171° South 486 559 43,000  Level Atlanta Center
04:14PM 35.8058 -82.2822 171° South 486 559 43,000  Level Atlanta Center
04:15PM 35.6761 -82.2594 172° South 480 552 43,000  Level Atlanta Center
04:16PM 35.5422 -82.2369 172° South 480 552 43,000  Level Atlanta Center
04:17PM 35.4042 -82.2119 172° South 492 566 43,000  Level Atlanta Center
04:18PM 35.2744 -82.1842 170° South 492 566 43,000  Level Atlanta Center
04:19PM 35.1406 -82.1592 171° South 486 559 43,000  Level Atlanta Center
04:20PM 35.0108 -82.1342 171° South 480 552 43,000  Level Atlanta Center
04:21PM 34.8914 -82.1092 170° South 480 552 43,000  Level Atlanta Center
04:23PM 34.6828 -82.0669 171° South 498 573 43,000  Level Jacksonville Center
04:24PM 34.5514 -82.0456 172° South 498 573 43,000  Level Jacksonville Center
04:25PM 34.4175 -82.0192 171° South 498 573 43,000  Level Jacksonville Center
04:26PM 34.2839 -81.9928 171° South 493 567 43,000  Level Jacksonville Center
04:27PM 34.1503 -81.9667 171° South 493 567 43,000  Level Jacksonville Center
04:28PM 34.0164 -81.9431 172° South 487 560 43,000  Level Jacksonville Center
04:29PM 33.8828 -81.9194 172° South 487 560 43,000  Level Jacksonville Center
04:30PM 33.7469 -81.8936 171° South 487 560 43,000  Level Jacksonville Center
04:31PM 33.6111 -81.8675 171° South 487 560 43,000  Level Jacksonville Center
04:32PM 33.4753 -81.8442 172° South 487 560 43,000  Level Jacksonville Center
04:33PM 33.3414 -81.8183 171° South 487 560 43,000  Level Jacksonville Center
04:34PM 33.2056 -81.7953 172° South 487 560 43,000  Level Jacksonville Center
04:35PM 33.0717 -81.7697 171° South 487 560 43,000  Level Jacksonville Center
04:36PM 32.9400 -81.7467 172° South 487 560 43,000  Level Jacksonville Center
04:37PM 32.8061 -81.7211 171° South 487 560 43,000  Level Jacksonville Center
04:38PM 32.6597 -81.6983 173° South 481 554 43,000  Level Jacksonville Center
04:39PM 32.5239 -81.6753 172° South 488 562 43,000  Level Jacksonville Center
04:40PM 32.4006 -81.6525 171° South 495 570 43,000  Level Jacksonville Center
04:41PM 32.2519 -81.6275 172° South 495 570 43,000  Level Jacksonville Center
04:42PM 32.1286 -81.6047 171° South 501 577 43,000  Level Jacksonville Center
04:43PM 31.9781 -81.5772 171° South 500 575 43,000  Level Jacksonville Center
04:44PM 31.8400 -81.5500 170° South 500 575 43,000  Level Jacksonville Center
04:45PM 31.7186 -81.5297 172° South 505 581 43,000  Level Jacksonville Center
04:46PM 31.5681 -81.5028 171° South 505 581 43,000  Level Jacksonville Center
04:47PM 31.4467 -81.4803 171° South 500 575 43,000  Level Jacksonville Center
04:48PM 31.3086 -81.4581 172° South 500 575 43,000  Level Jacksonville Center
04:49PM 31.1728 -81.4356 172° South 500 575 43,000  Level Jacksonville Center
04:50PM 31.0386 -81.4086 170° South 500 575 43,000  Level Jacksonville Center
04:51PM 30.9069 -81.3842 171° South 500 575 43,000  Level Jacksonville Center
04:52PM 30.7689 -81.3622 172° South 500 575 43,000  Level Jacksonville Center
04:53PM 30.6328 -81.3403 172° South 500 575 43,000  Level Jacksonville Center
04:54PM 30.4989 -81.3158 171° South 500 575 43,000 -780 Level Jacksonville Center
04:55PM 30.3589 -81.2917 172° South 506 582 41,500 -1,620 Descending Jacksonville Center
04:56PM 30.2186 -81.2675 172° South 506 582 39,800 -1,800 Descending Jacksonville Center
04:57PM 30.0764 -81.2436 172° South 511 588 38,000 -1,800 Descending Jacksonville Center
04:58PM 29.9361 -81.2219 172° South 511 588 36,200 -1,020 Descending Jacksonville Center
04:59PM 29.7875 -81.1983 172° South 505 581 36,000 -60 Descending Jacksonville Center
05:01PM 29.4592 -81.1358 171° South 520 598 36,000  Level Miami Center
05:02PM 29.3347 -81.1192 173° South 515 593 36,000  Level Miami Center
05:03PM 29.2011 -81.0475 155° Southeast 515 593 36,000  Level Miami Center
05:04PM 29.0767 -80.9547 147° Southeast 515 593 36,000  Level Miami Center
05:05PM 28.9519 -80.8647 148° Southeast 527 606 36,000  Level Miami Center
05:06PM 28.8172 -80.7628 146° Southeast 533 613 36,000  Level Miami Center
05:07PM 28.7047 -80.6808 147° Southeast 533 613 36,000 -1,320 Level Miami Center
05:08PM 28.5778 -80.5889 148° Southeast 538 619 33,400 -2,940 Descending Miami Center
05:09PM 28.4336 -80.5086 154° Southeast 519 597 30,200 -2,880 Descending Miami Center
05:10PM 28.2953 -80.4594 163° South 519 597 27,700 -2,460 Descending Miami Center
05:11PM 28.1564 -80.4150 164° South 519 597 25,300 -2,340 Descending Miami Center
05:12PM 28.0467 -80.3761 163° South 487 560 23,100 -2,160 Descending Miami Center
05:13PM 27.9286 -80.3372 164° South 456 525 21,000 -2,160 Descending Miami Center
05:14PM 27.8003 -80.2958 164° South 444 511 18,800 -2,160 Descending Miami Center
05:15PM 27.6928 -80.2575 162° South 418 481 16,700 -2,040 Descending Miami Center
05:16PM 27.5850 -80.2236 164° South 406 467 14,800 -1,860 Descending Miami Center
05:17PM 27.4939 -80.1931 163° South 391 450 13,000 -1,800 Descending Miami Center
05:18PM 27.3964 -80.1622 164° South 374 430 11,200 -1,500 Descending Miami Center
05:19PM 27.3008 -80.1383 167° South 342 394 10,000 -660 Descending Miami Center
05:20PM 27.2200 -80.1150 166° South 316 364 9,900 -780 Descending Miami Center
05:21PM 27.1436 -80.0778 157° South 298 343 8,500 -1,560 Descending Miami Center
05:22PM 27.0794 -80.0458 156° South 298 343 6,800 -1,800 Descending Miami Center
05:23PM 26.9967 -80.0108 159° South 288 331 5,000 -900 Descending Miami Center
05:24PM 26.9289 -80.0508 208° Southwest 261 300 5,000  Level Miami Center
05:25PM 26.8675 -80.0981 214° Southwest 261 300 5,000 -60 Level Miami Center
05:26PM 26.8167 -80.1294 209° Southwest 272 313 4,900  Descending Miami Center
05:26PM 26.8042 -80.1267 169° South 274 315 5,000  Climbing Miami Center
05:27PM 26.7494 -80.1369 190° South 276 318 4,900 -120 Descending Miami Center
05:28PM 26.6742 -80.1439 185° South 275 316 4,900 -720 Level Miami Center
05:29PM 26.5989 -80.1467 182° South 269 310 3,500 -1,380 Descending Miami Center
05:30PM 26.5214 -80.1561 186° South 260 299 2,100 -780 Descending Miami Center
05:31PM 26.4483 -80.1608 183° South 257 296 2,000 -300 Descending Miami Center
05:32PM 26.3917 -80.1664 185° South 186 214 1,500 -600 Descending Miami Center
05:33PM 26.3481 -80.1536 165° South 168 193 800 -720 Descending Miami Center
05:34PM 26.3678 -80.1169 59° Northeast 129 148 100 -720 Descending Miami Center
05:36PM 26.3667 -80.1000 180° South  Level FlightAware Approximate